createdAt,value
2022-10-18T00:00:24.850Z,16.50
2022-10-18T00:02:52.403Z,16.56
2022-10-18T00:05:19.982Z,16.61
2022-10-18T00:07:47.551Z,16.65
2022-10-18T00:10:15.183Z,16.71
2022-10-18T00:12:42.770Z,16.73
2022-10-18T00:15:12.246Z,16.74
2022-10-18T00:17:41.191Z,16.73
2022-10-18T00:20:09.932Z,16.67
2022-10-18T00:22:38.806Z,16.69
2022-10-18T00:25:08.336Z,16.64
2022-10-18T00:27:36.580Z,16.57
2022-10-18T00:30:05.032Z,16.53
2022-10-18T00:32:37.248Z,16.46
2022-10-18T00:35:07.887Z,16.42
2022-10-18T00:37:36.259Z,16.38
2022-10-18T00:40:04.670Z,16.37
2022-10-18T00:42:34.577Z,16.36
2022-10-18T00:45:17.848Z,16.35
2022-10-18T00:47:49.610Z,16.33
2022-10-18T00:50:20.559Z,16.30
2022-10-18T00:52:53.202Z,16.28
2022-10-18T00:55:21.416Z,16.25
2022-10-18T00:57:50.564Z,16.25
2022-10-18T01:00:19.535Z,16.24
2022-10-18T01:02:48.081Z,16.21
2022-10-18T01:05:18.652Z,16.17
2022-10-18T01:08:06.683Z,16.13
2022-10-18T01:10:42.991Z,16.11
2022-10-18T01:13:27.133Z,16.14
2022-10-18T01:16:00.523Z,16.15
2022-10-18T01:18:35.989Z,16.11
2022-10-18T01:21:18.074Z,16.12
2022-10-18T01:24:15.569Z,16.16
2022-10-18T01:27:10.006Z,16.18
2022-10-18T01:29:48.794Z,16.19
2022-10-18T01:32:22.351Z,16.20
2022-10-18T01:34:53.712Z,16.23
2022-10-18T01:37:23.556Z,16.24
2022-10-18T01:39:55.424Z,16.27
2022-10-18T01:42:22.986Z,16.26
2022-10-18T01:44:53.102Z,16.21
2022-10-18T01:47:22.729Z,16.21
2022-10-18T01:49:50.312Z,16.23
2022-10-18T01:52:17.877Z,16.23
2022-10-18T01:54:49.969Z,16.25
2022-10-18T01:57:24.850Z,16.32
2022-10-18T01:59:59.152Z,16.39
2022-10-18T02:02:42.436Z,16.37
2022-10-18T02:05:19.040Z,16.36
2022-10-18T02:08:05.643Z,16.28
2022-10-18T02:10:46.635Z,16.27
2022-10-18T02:13:17.022Z,16.27
2022-10-18T02:15:48.892Z,16.19
2022-10-18T02:18:21.903Z,16.15
2022-10-18T02:20:50.976Z,16.14
2022-10-18T02:23:24.009Z,16.19
2022-10-18T02:25:52.939Z,16.27
2022-10-18T02:28:20.653Z,16.37
2022-10-18T02:30:54.413Z,16.40
2022-10-18T02:33:33.642Z,16.37
2022-10-18T02:36:08.348Z,16.37
2022-10-18T02:38:36.188Z,16.33
2022-10-18T02:43:39.799Z,16.33
2022-10-18T02:55:51.105Z,16.37
2022-10-18T03:05:14.908Z,16.36
2022-10-18T03:07:42.867Z,16.34
2022-10-18T03:10:11.028Z,16.35
2022-10-18T03:12:42.627Z,16.40
2022-10-18T03:26:28.195Z,16.35
2022-10-18T03:54:38.804Z,16.36
2022-10-18T03:57:20.997Z,16.40
2022-10-18T04:00:07.586Z,16.46
2022-10-18T04:18:46.083Z,16.59
2022-10-18T04:21:13.967Z,16.61
2022-10-18T04:26:34.286Z,16.67
2022-10-18T04:29:12.349Z,16.68
2022-10-18T05:07:05.321Z,16.93
2022-10-18T06:05:08.945Z,17.33
2022-10-18T06:52:20.923Z,17.67
2022-10-18T06:55:11.999Z,17.70
2022-10-18T07:00:49.374Z,17.68
2022-10-18T07:06:50.892Z,17.69
2022-10-18T07:15:51.058Z,18.03
2022-10-18T07:22:30.259Z,18.42
2022-10-18T07:54:42.907Z,21.23
2022-10-18T07:57:10.596Z,21.57
2022-10-18T07:59:38.785Z,21.88
2022-10-18T08:02:06.399Z,22.13
2022-10-18T08:04:34.028Z,22.34
2022-10-18T08:07:01.570Z,22.52
2022-10-18T08:09:29.336Z,22.66
2022-10-18T08:11:58.223Z,22.77
2022-10-18T08:14:25.741Z,22.92
2022-10-18T08:16:53.377Z,23.07
2022-10-18T08:19:20.892Z,23.18
2022-10-18T08:21:48.489Z,23.28
2022-10-18T08:24:16.078Z,23.39
2022-10-18T08:26:43.769Z,23.57
2022-10-18T08:29:31.677Z,23.62
2022-10-18T08:31:59.572Z,23.66
2022-10-18T08:34:27.218Z,23.81
2022-10-18T08:36:54.845Z,24.19
2022-10-18T08:39:22.509Z,24.66
2022-10-18T08:42:08.855Z,25.42
2022-10-18T08:44:44.887Z,26.28
2022-10-18T08:47:15.968Z,27.02
2022-10-18T08:49:47.562Z,27.55
2022-10-18T08:52:20.186Z,27.89
2022-10-18T08:54:56.637Z,28.31
2022-10-18T08:57:24.212Z,28.91
2022-10-18T08:59:53.163Z,28.98
2022-10-18T09:02:36.487Z,28.82
2022-10-18T09:05:14.361Z,28.80
2022-10-18T09:08:38.737Z,29.21
2022-10-18T09:11:16.357Z,29.49
2022-10-18T09:14:03.990Z,29.71
2022-10-18T09:16:41.435Z,30.61
2022-10-18T09:19:21.546Z,31.72
2022-10-18T09:21:52.740Z,32.74
2022-10-18T09:24:28.080Z,33.18
2022-10-18T09:27:01.873Z,33.45
2022-10-18T09:29:43.728Z,33.68
2022-10-18T09:32:25.442Z,33.69
2022-10-18T09:34:57.458Z,33.81
2022-10-18T09:37:28.182Z,34.09
2022-10-18T09:40:04.013Z,34.58
2022-10-18T09:42:37.539Z,34.60
2022-10-18T09:45:14.198Z,35.34
2022-10-18T09:47:48.478Z,36.16
2022-10-18T09:50:23.198Z,36.81
2022-10-18T09:52:58.651Z,36.24
2022-10-18T09:55:31.730Z,35.08
2022-10-18T09:58:02.842Z,34.26
2022-10-18T10:00:34.622Z,34.52
2022-10-18T10:03:08.002Z,35.95
2022-10-18T10:05:35.484Z,37.11
2022-10-18T10:08:04.888Z,37.56
2022-10-18T10:10:35.383Z,37.94
2022-10-18T10:13:09.659Z,37.77
2022-10-18T10:15:42.391Z,37.85
2022-10-18T10:18:20.980Z,38.57
2022-10-18T10:20:51.425Z,39.02
2022-10-18T10:23:22.827Z,38.50
2022-10-18T10:25:52.849Z,37.47
2022-10-18T10:28:22.979Z,37.60
2022-10-18T10:30:51.169Z,38.66
2022-10-18T10:33:39.669Z,39.83
2022-10-18T10:36:18.307Z,38.98
2022-10-18T10:38:45.938Z,37.87
2022-10-18T10:41:21.578Z,36.94
2022-10-18T10:43:50.620Z,35.67
2022-10-18T10:46:23.012Z,34.46
2022-10-18T10:49:13.951Z,33.60
2022-10-18T10:51:43.629Z,33.42
2022-10-18T10:54:16.557Z,33.65
2022-10-18T10:56:55.226Z,34.14
2022-10-18T10:59:26.144Z,34.93
2022-10-18T11:02:20.678Z,34.87
2022-10-18T11:04:51.110Z,34.69
2022-10-18T11:07:25.656Z,34.62
2022-10-18T11:10:00.816Z,34.23
2022-10-18T11:12:34.527Z,33.49
2022-10-18T11:15:18.716Z,32.67
2022-10-18T11:20:33.805Z,32.38
2022-10-18T11:23:03.535Z,33.15
2022-10-18T11:26:01.364Z,33.86
2022-10-18T11:28:38.727Z,33.97
2022-10-18T11:31:18.224Z,33.77
2022-10-18T11:34:09.683Z,33.24
2022-10-18T11:37:02.288Z,34.06
2022-10-18T11:39:48.702Z,35.15
2022-10-18T11:42:25.580Z,34.33
2022-10-18T11:45:05.197Z,33.48
2022-10-18T11:47:42.305Z,33.14
2022-10-18T11:50:20.954Z,32.35
2022-10-18T11:53:03.332Z,31.39
2022-10-18T11:55:43.672Z,30.74
2022-10-18T11:58:28.068Z,30.50
2022-10-18T12:01:03.339Z,30.72
2022-10-18T12:03:51.711Z,32.49
2022-10-18T12:06:23.389Z,33.74
2022-10-18T12:08:59.772Z,33.50
2022-10-18T12:11:33.880Z,32.67
2022-10-18T12:14:05.037Z,31.93
2022-10-18T12:16:50.855Z,31.35
2022-10-18T12:19:26.900Z,30.80
2022-10-18T12:21:57.469Z,30.35
2022-10-18T12:24:31.749Z,29.93
2022-10-18T12:27:05.067Z,29.56
2022-10-18T12:29:38.761Z,29.29
2022-10-18T12:32:11.666Z,29.07
2022-10-18T12:34:45.020Z,28.88
2022-10-18T12:37:51.112Z,28.68
2022-10-18T12:40:24.350Z,28.46
2022-10-18T12:42:54.767Z,28.12
2022-10-18T12:45:29.368Z,27.76
2022-10-18T12:48:01.700Z,27.43
2022-10-18T12:50:36.145Z,27.20
2022-10-18T12:53:18.204Z,27.03
2022-10-18T12:55:49.245Z,26.90
2022-10-18T12:58:32.605Z,26.80
2022-10-18T13:01:03.005Z,26.71
2022-10-18T13:03:51.646Z,26.62
2022-10-18T13:06:19.773Z,26.56
2022-10-18T13:08:57.279Z,26.47
2022-10-18T13:12:03.797Z,26.29
2022-10-18T13:15:24.715Z,26.17
2022-10-18T13:18:12.491Z,26.09
2022-10-18T13:20:44.951Z,26.04
2022-10-18T13:23:51.164Z,26.06
2022-10-18T13:26:28.734Z,26.04
2022-10-18T13:29:18.294Z,25.98
2022-10-18T13:31:59.644Z,25.89
2022-10-18T13:34:41.208Z,25.76
2022-10-18T13:37:23.955Z,25.63
2022-10-18T13:40:15.307Z,25.53
2022-10-18T13:42:47.576Z,25.39
2022-10-18T13:45:45.544Z,25.28
2022-10-18T13:48:46.625Z,25.20
2022-10-18T13:51:31.256Z,25.04
2022-10-18T13:54:05.751Z,24.87
2022-10-18T13:56:53.351Z,24.74
2022-10-18T14:02:50.903Z,24.49
2022-10-18T14:05:37.633Z,24.36
2022-10-18T14:08:13.709Z,24.30
2022-10-18T14:11:02.312Z,24.27
2022-10-18T14:13:45.963Z,24.19
2022-10-18T14:16:28.947Z,24.12
2022-10-18T14:19:11.708Z,24.02
2022-10-18T14:21:44.259Z,23.92
2022-10-18T14:24:20.025Z,23.84
2022-10-18T14:26:47.894Z,23.79
2022-10-18T14:29:23.530Z,23.73
2022-10-18T14:31:55.580Z,23.64
2022-10-18T14:34:28.318Z,23.56
2022-10-18T14:36:56.124Z,23.52
2022-10-18T14:39:29.062Z,23.47
2022-10-18T14:41:58.551Z,23.40
2022-10-18T14:44:54.265Z,23.35
2022-10-18T14:47:31.576Z,23.29
2022-10-18T14:50:38.691Z,23.25
2022-10-18T14:53:46.565Z,23.21
2022-10-18T14:56:58.552Z,23.15
2022-10-18T14:59:40.268Z,23.11
2022-10-18T15:02:35.870Z,23.07
2022-10-18T15:05:42.887Z,23.00
2022-10-18T15:09:00.210Z,22.94
2022-10-18T15:12:02.308Z,22.87
2022-10-18T15:14:57.121Z,22.77
2022-10-18T15:24:48.142Z,22.50
2022-10-18T15:27:37.719Z,22.42
2022-10-18T15:30:22.517Z,22.35
2022-10-18T15:33:15.746Z,22.32
2022-10-18T15:35:57.318Z,22.29
2022-10-18T15:38:34.753Z,22.26
2022-10-18T15:41:42.365Z,22.22
2022-10-18T15:44:59.792Z,22.19
2022-10-18T15:51:37.469Z,22.07
2022-10-18T15:57:02.089Z,21.95
2022-10-18T16:03:29.464Z,21.84
2022-10-18T16:06:36.404Z,21.75
2022-10-18T16:12:23.384Z,21.65
2022-10-18T16:15:13.520Z,21.59
2022-10-18T16:18:03.258Z,21.53
2022-10-18T16:20:44.649Z,21.51
2022-10-18T16:23:41.829Z,21.46
2022-10-18T16:26:28.928Z,21.43
2022-10-18T16:32:44.546Z,21.37
2022-10-18T16:35:34.664Z,21.36
2022-10-18T16:38:35.099Z,21.33
2022-10-18T16:41:45.212Z,21.30
2022-10-18T16:44:40.296Z,21.25
2022-10-18T16:47:44.522Z,21.21
2022-10-18T16:50:49.480Z,21.17
2022-10-18T16:53:42.306Z,21.11
2022-10-18T16:56:43.100Z,21.07
2022-10-18T16:59:37.078Z,21.03
2022-10-18T17:05:41.329Z,20.90
2022-10-18T17:10:53.215Z,20.79
2022-10-18T19:02:22.909Z,19.27
2022-10-18T19:23:38.621Z,19.16
2022-10-18T22:53:40.599Z,16.68
2022-10-18T22:56:10.583Z,16.70
2022-10-18T22:58:38.559Z,16.72
2022-10-18T23:01:09.205Z,16.64
2022-10-18T23:03:38.075Z,16.58
2022-10-18T23:06:07.382Z,16.55
2022-10-18T23:08:35.253Z,16.51
2022-10-18T23:11:04.431Z,16.44
2022-10-18T23:13:34.124Z,16.39
2022-10-18T23:16:04.846Z,16.35
2022-10-18T23:18:33.493Z,16.29
2022-10-18T23:21:03.147Z,16.22
2022-10-18T23:23:35.811Z,16.19
2022-10-18T23:26:07.228Z,16.16
2022-10-18T23:28:45.766Z,16.10
2022-10-18T23:31:20.675Z,16.06
2022-10-18T23:34:00.398Z,16.04
2022-10-18T23:36:34.087Z,16.00
2022-10-18T23:39:07.012Z,15.99
2022-10-18T23:41:40.518Z,16.00
2022-10-18T23:44:12.116Z,15.99
2022-10-18T23:46:45.104Z,16.02
2022-10-18T23:49:21.731Z,15.99
2022-10-18T23:51:54.739Z,15.92
2022-10-18T23:54:24.466Z,15.89
2022-10-18T23:56:59.340Z,15.91
